Aérodrome :
LOGIN :

S'inscrire | Disclaimer

   EN    FR    IT 

 










Légende :    VFR   VFR Marginal   IFR   IFR Intensif   IFR Très Intensif
Visi : 
Plafond : 
>= 8 km
>= 3000ft
5 à 8 km
1000 à 3000 ft
1500m à 5 km
500 à 1000 ft
800 à 1500m
200 à 500 ft
< 800m
< 200 ft
Symboles :   Orages  Brouillard  Fortes neiges  Fortes précipitations  Vent > 20 kt
SIGMETs :   Divers  Orages  Givrage  Turbulence  Onde Orograph.  Cendres Volcan.






- Altitude de l'aérodrome : 481 ft
- Code IATA : DNK


UKDD - Dnipropetrovs'k

DERNIER METAR :
  • 221400Z 27006MPS 5000 -DZ BR OVC008 01/M00 Q1008 R26/290056 TEMPO 1100 RA BR BKN003

METARs EXPIRÉS :
  • 221330Z 27006MPS 240V300 1600 DZ BR OVC006 01/M00 Q1008 R26/190060 TEMPO 1100 RA BR BKN003
  • 221300Z 27007MPS 240V300 9999 OVC007 02/M00 Q1008 R26/190060 NOSIG
  • 221230Z 26006MPS 200V290 9999 BKN007 02/M00 Q1008 R26/190060 NOSIG
  • 221200Z 26006MPS 210V300 9999 -RA OVC008 01/M00 Q1009 R26/190060 NOSIG
  • 221130Z 26007MPS 230V300 9999 OVC009 02/M01 Q1010 R26/190060 NOSIG

TAF TAF UKDD
Valide du 22 à 12h jusqu'au 23 à 12h UTC


221111Z 2212/2312 27007MPS 6000 BKN008 TX02/2212Z TNM01/2305Z
TEMPO 2212/2224 28010G16MPS 1100 SHRASN BR BKN003 BKN012CB
BECMG 2222/2224 33009MPS
TEMPO 2300/2312 33012G17MPS
TEMPO 2300/2308 1100 SHSN BR BKN002 BKN012CB



MET'MAP, la Météo Aéronautique d'un coup d'oeil ! - Copyright ORBIFLY Décembre 2007 - Disclaimer

ORBIFLY MET'MAP TEAM :

Programmation & Développement : Alexandra Zaïnal
Sur une idée originale de : Baudouin d'Aumeries
Assistance à la programmation : Marc-Olivier Méhu
Soutien technique & logistique : Manuel Goepfert

Contact : metmap@orbifly.com




SOURCES & CREDITS :

   NOAA